sensor_id;sensor_type;location;lat;lon;timestamp;P1;durP1;ratioP1;P2;durP2;ratioP2
11711;SDS011;5912;51.034;6.984;2024-02-23T00:01:53;0.60;;;0.28;;
11711;SDS011;5912;51.034;6.984;2024-02-23T00:04:19;0.50;;;0.40;;
11711;SDS011;5912;51.034;6.984;2024-02-23T00:06:45;0.40;;;0.30;;
11711;SDS011;5912;51.034;6.984;2024-02-23T00:09:10;2.03;;;0.50;;
11711;SDS011;5912;51.034;6.984;2024-02-23T00:11:40;0.85;;;0.45;;
11711;SDS011;5912;51.034;6.984;2024-02-23T00:14:09;0.70;;;0.30;;
11711;SDS011;5912;51.034;6.984;2024-02-23T00:16:41;1.35;;;0.40;;
11711;SDS011;5912;51.034;6.984;2024-02-23T00:19:10;1.57;;;0.60;;
11711;SDS011;5912;51.034;6.984;2024-02-23T00:21:36;2.07;;;0.50;;
11711;SDS011;5912;51.034;6.984;2024-02-23T00:24:02;1.30;;;0.47;;
11711;SDS011;5912;51.034;6.984;2024-02-23T00:26:28;2.03;;;0.47;;
11711;SDS011;5912;51.034;6.984;2024-02-23T00:28:56;0.70;;;0.30;;
11711;SDS011;5912;51.034;6.984;2024-02-23T00:31:22;0.50;;;0.40;;
11711;SDS011;5912;51.034;6.984;2024-02-23T00:33:48;1.70;;;0.60;;
11711;SDS011;5912;51.034;6.984;2024-02-23T00:36:13;0.80;;;0.40;;
11711;SDS011;5912;51.034;6.984;2024-02-23T00:38:39;0.40;;;0.20;;
11711;SDS011;5912;51.034;6.984;2024-02-23T00:41:05;1.83;;;0.50;;
11711;SDS011;5912;51.034;6.984;2024-02-23T00:43:37;0.90;;;0.40;;
11711;SDS011;5912;51.034;6.984;2024-02-23T00:46:03;1.27;;;0.50;;
11711;SDS011;5912;51.034;6.984;2024-02-23T00:48:29;0.40;;;0.30;;
11711;SDS011;5912;51.034;6.984;2024-02-23T00:50:55;1.17;;;0.40;;
11711;SDS011;5912;51.034;6.984;2024-02-23T00:53:20;1.47;;;0.47;;
11711;SDS011;5912;51.034;6.984;2024-02-23T00:55:46;1.27;;;0.33;;
11711;SDS011;5912;51.034;6.984;2024-02-23T00:58:12;0.67;;;0.43;;
11711;SDS011;5912;51.034;6.984;2024-02-23T01:00:38;1.23;;;0.50;;
11711;SDS011;5912;51.034;6.984;2024-02-23T01:03:03;0.60;;;0.37;;
11711;SDS011;5912;51.034;6.984;2024-02-23T01:05:29;0.47;;;0.40;;
11711;SDS011;5912;51.034;6.984;2024-02-23T01:07:55;3.93;;;0.57;;
11711;SDS011;5912;51.034;6.984;2024-02-23T01:10:20;0.80;;;0.37;;
11711;SDS011;5912;51.034;6.984;2024-02-23T01:12:46;1.90;;;0.60;;
11711;SDS011;5912;51.034;6.984;2024-02-23T01:15:11;0.60;;;0.50;;
11711;SDS011;5912;51.034;6.984;2024-02-23T01:17:37;2.83;;;0.60;;
11711;SDS011;5912;51.034;6.984;2024-02-23T01:20:03;1.03;;;0.30;;
11711;SDS011;5912;51.034;6.984;2024-02-23T01:22:29;1.00;;;0.60;;
11711;SDS011;5912;51.034;6.984;2024-02-23T01:24:54;1.07;;;0.40;;
11711;SDS011;5912;51.034;6.984;2024-02-23T01:27:20;1.67;;;0.50;;
11711;SDS011;5912;51.034;6.984;2024-02-23T01:29:45;1.63;;;0.60;;
11711;SDS011;5912;51.034;6.984;2024-02-23T01:32:11;2.00;;;0.47;;
11711;SDS011;5912;51.034;6.984;2024-02-23T01:34:36;0.80;;;0.50;;
11711;SDS011;5912;51.034;6.984;2024-02-23T01:39:49;2.00;;;0.50;;
11711;SDS011;5912;51.034;6.984;2024-02-23T01:42:14;1.07;;;0.50;;
11711;SDS011;5912;51.034;6.984;2024-02-23T01:44:40;0.43;;;0.20;;
11711;SDS011;5912;51.034;6.984;2024-02-23T01:47:05;2.10;;;0.50;;
11711;SDS011;5912;51.034;6.984;2024-02-23T01:49:31;0.30;;;0.30;;
11711;SDS011;5912;51.034;6.984;2024-02-23T01:51:58;1.90;;;0.37;;
11711;SDS011;5912;51.034;6.984;2024-02-23T01:54:25;2.77;;;0.50;;
11711;SDS011;5912;51.034;6.984;2024-02-23T01:56:53;2.87;;;0.50;;
11711;SDS011;5912;51.034;6.984;2024-02-23T01:59:19;0.30;;;0.30;;
11711;SDS011;5912;51.034;6.984;2024-02-23T02:01:45;0.40;;;0.30;;
11711;SDS011;5912;51.034;6.984;2024-02-23T02:04:10;1.37;;;0.57;;
11711;SDS011;5912;51.034;6.984;2024-02-23T02:06:36;3.40;;;0.43;;
11711;SDS011;5912;51.034;6.984;2024-02-23T02:09:02;1.30;;;0.40;;
11711;SDS011;5912;51.034;6.984;2024-02-23T02:11:28;1.40;;;0.50;;
11711;SDS011;5912;51.034;6.984;2024-02-23T02:13:53;1.73;;;0.67;;
11711;SDS011;5912;51.034;6.984;2024-02-23T02:16:19;1.90;;;0.27;;
11711;SDS011;5912;51.034;6.984;2024-02-23T02:18:44;2.40;;;0.60;;
11711;SDS011;5912;51.034;6.984;2024-02-23T02:21:11;0.60;;;0.23;;
11711;SDS011;5912;51.034;6.984;2024-02-23T02:23:36;4.23;;;0.83;;
11711;SDS011;5912;51.034;6.984;2024-02-23T02:26:02;0.43;;;0.37;;
11711;SDS011;5912;51.034;6.984;2024-02-23T02:28:28;1.63;;;0.60;;
11711;SDS011;5912;51.034;6.984;2024-02-23T02:30:54;1.97;;;0.43;;
11711;SDS011;5912;51.034;6.984;2024-02-23T02:33:20;0.97;;;0.50;;
11711;SDS011;5912;51.034;6.984;2024-02-23T02:35:46;2.20;;;0.60;;
11711;SDS011;5912;51.034;6.984;2024-02-23T02:38:11;3.13;;;0.70;;
11711;SDS011;5912;51.034;6.984;2024-02-23T02:40:37;1.63;;;0.60;;
11711;SDS011;5912;51.034;6.984;2024-02-23T02:43:03;2.70;;;0.63;;
11711;SDS011;5912;51.034;6.984;2024-02-23T02:45:29;3.30;;;0.60;;
11711;SDS011;5912;51.034;6.984;2024-02-23T02:47:54;1.63;;;0.53;;
11711;SDS011;5912;51.034;6.984;2024-02-23T02:50:21;1.27;;;0.47;;
11711;SDS011;5912;51.034;6.984;2024-02-23T02:52:47;0.40;;;0.20;;
11711;SDS011;5912;51.034;6.984;2024-02-23T02:55:13;5.13;;;0.80;;
11711;SDS011;5912;51.034;6.984;2024-02-23T02:57:38;2.63;;;0.77;;
11711;SDS011;5912;51.034;6.984;2024-02-23T03:00:04;2.33;;;0.43;;
11711;SDS011;5912;51.034;6.984;2024-02-23T03:02:31;1.70;;;0.50;;
11711;SDS011;5912;51.034;6.984;2024-02-23T03:04:56;2.27;;;0.70;;
11711;SDS011;5912;51.034;6.984;2024-02-23T03:07:22;2.67;;;0.63;;
11711;SDS011;5912;51.034;6.984;2024-02-23T03:09:48;3.33;;;0.50;;
11711;SDS011;5912;51.034;6.984;2024-02-23T03:12:15;2.50;;;0.53;;
11711;SDS011;5912;51.034;6.984;2024-02-23T03:14:41;3.03;;;0.70;;
11711;SDS011;5912;51.034;6.984;2024-02-23T03:17:07;3.27;;;0.70;;
11711;SDS011;5912;51.034;6.984;2024-02-23T03:19:34;4.63;;;0.57;;
11711;SDS011;5912;51.034;6.984;2024-02-23T03:22:00;0.63;;;0.30;;
11711;SDS011;5912;51.034;6.984;2024-02-23T03:24:26;2.17;;;0.80;;
11711;SDS011;5912;51.034;6.984;2024-02-23T03:26:52;0.80;;;0.40;;
11711;SDS011;5912;51.034;6.984;2024-02-23T03:29:17;2.20;;;0.60;;
11711;SDS011;5912;51.034;6.984;2024-02-23T03:31:43;0.90;;;0.60;;
11711;SDS011;5912;51.034;6.984;2024-02-23T03:34:09;3.43;;;0.90;;
11711;SDS011;5912;51.034;6.984;2024-02-23T03:36:36;2.87;;;0.50;;
11711;SDS011;5912;51.034;6.984;2024-02-23T03:39:02;0.93;;;0.40;;
11711;SDS011;5912;51.034;6.984;2024-02-23T03:41:28;1.33;;;0.90;;
11711;SDS011;5912;51.034;6.984;2024-02-23T03:43:53;1.23;;;0.50;;
11711;SDS011;5912;51.034;6.984;2024-02-23T03:49:15;1.00;;;0.70;;
11711;SDS011;5912;51.034;6.984;2024-02-23T03:51:41;2.73;;;0.60;;
11711;SDS011;5912;51.034;6.984;2024-02-23T03:54:07;2.70;;;0.57;;
11711;SDS011;5912;51.034;6.984;2024-02-23T03:56:42;1.63;;;0.53;;
11711;SDS011;5912;51.034;6.984;2024-02-23T03:59:08;2.73;;;0.70;;
11711;SDS011;5912;51.034;6.984;2024-02-23T04:01:37;6.77;;;0.70;;
11711;SDS011;5912;51.034;6.984;2024-02-23T04:04:04;1.33;;;0.50;;
11711;SDS011;5912;51.034;6.984;2024-02-23T04:06:30;4.43;;;0.30;;
11711;SDS011;5912;51.034;6.984;2024-02-23T04:08:57;2.03;;;0.60;;
11711;SDS011;5912;51.034;6.984;2024-02-23T04:11:22;1.70;;;0.50;;
11711;SDS011;5912;51.034;6.984;2024-02-23T04:13:48;0.77;;;0.40;;
11711;SDS011;5912;51.034;6.984;2024-02-23T04:16:14;2.87;;;0.60;;
11711;SDS011;5912;51.034;6.984;2024-02-23T04:18:40;0.87;;;0.43;;
11711;SDS011;5912;51.034;6.984;2024-02-23T04:21:05;0.70;;;0.40;;
11711;SDS011;5912;51.034;6.984;2024-02-23T04:23:31;2.13;;;0.60;;
11711;SDS011;5912;51.034;6.984;2024-02-23T04:28:48;2.17;;;0.60;;
11711;SDS011;5912;51.034;6.984;2024-02-23T04:31:13;2.33;;;0.60;;
11711;SDS011;5912;51.034;6.984;2024-02-23T04:33:39;1.80;;;0.57;;
11711;SDS011;5912;51.034;6.984;2024-02-23T04:36:05;3.53;;;1.00;;
11711;SDS011;5912;51.034;6.984;2024-02-23T04:38:32;1.97;;;0.70;;
11711;SDS011;5912;51.034;6.984;2024-02-23T04:40:57;2.63;;;0.60;;
11711;SDS011;5912;51.034;6.984;2024-02-23T04:43:23;2.63;;;1.20;;
11711;SDS011;5912;51.034;6.984;2024-02-23T04:45:50;3.17;;;0.57;;
11711;SDS011;5912;51.034;6.984;2024-02-23T04:48:16;4.47;;;0.90;;
11711;SDS011;5912;51.034;6.984;2024-02-23T04:50:42;1.30;;;0.73;;
11711;SDS011;5912;51.034;6.984;2024-02-23T04:53:07;5.70;;;1.00;;
11711;SDS011;5912;51.034;6.984;2024-02-23T04:55:33;1.43;;;0.70;;
11711;SDS011;5912;51.034;6.984;2024-02-23T04:57:58;1.37;;;0.60;;
11711;SDS011;5912;51.034;6.984;2024-02-23T05:00:23;4.43;;;0.80;;
11711;SDS011;5912;51.034;6.984;2024-02-23T05:02:53;3.50;;;0.73;;
11711;SDS011;5912;51.034;6.984;2024-02-23T05:05:19;2.22;;;0.80;;
11711;SDS011;5912;51.034;6.984;2024-02-23T05:07:47;1.90;;;0.80;;
11711;SDS011;5912;51.034;6.984;2024-02-23T05:10:12;3.47;;;0.73;;
11711;SDS011;5912;51.034;6.984;2024-02-23T05:12:38;3.47;;;1.00;;
11711;SDS011;5912;51.034;6.984;2024-02-23T05:15:03;3.93;;;0.87;;
11711;SDS011;5912;51.034;6.984;2024-02-23T05:17:29;1.83;;;0.70;;
11711;SDS011;5912;51.034;6.984;2024-02-23T05:19:54;4.45;;;1.00;;
11711;SDS011;5912;51.034;6.984;2024-02-23T05:22:20;2.87;;;1.10;;
11711;SDS011;5912;51.034;6.984;2024-02-23T05:24:45;5.67;;;1.33;;
11711;SDS011;5912;51.034;6.984;2024-02-23T05:27:11;4.10;;;1.23;;
11711;SDS011;5912;51.034;6.984;2024-02-23T05:29:36;4.20;;;1.30;;
11711;SDS011;5912;51.034;6.984;2024-02-23T05:32:02;3.63;;;0.90;;
11711;SDS011;5912;51.034;6.984;2024-02-23T05:34:28;3.50;;;0.83;;
11711;SDS011;5912;51.034;6.984;2024-02-23T05:36:53;2.03;;;1.10;;
11711;SDS011;5912;51.034;6.984;2024-02-23T05:39:19;2.70;;;0.93;;
11711;SDS011;5912;51.034;6.984;2024-02-23T05:44:53;3.07;;;1.00;;
11711;SDS011;5912;51.034;6.984;2024-02-23T05:47:19;5.00;;;1.27;;
11711;SDS011;5912;51.034;6.984;2024-02-23T05:49:46;2.63;;;0.77;;
11711;SDS011;5912;51.034;6.984;2024-02-23T05:52:11;3.63;;;1.00;;
11711;SDS011;5912;51.034;6.984;2024-02-23T05:54:37;3.90;;;0.90;;
11711;SDS011;5912;51.034;6.984;2024-02-23T05:57:02;2.27;;;0.90;;
11711;SDS011;5912;51.034;6.984;2024-02-23T05:59:28;4.00;;;0.90;;
11711;SDS011;5912;51.034;6.984;2024-02-23T06:05:15;3.17;;;1.00;;
11711;SDS011;5912;51.034;6.984;2024-02-23T06:07:41;2.33;;;1.00;;
11711;SDS011;5912;51.034;6.984;2024-02-23T06:10:25;2.67;;;0.90;;
11711;SDS011;5912;51.034;6.984;2024-02-23T06:12:50;6.00;;;1.00;;
11711;SDS011;5912;51.034;6.984;2024-02-23T06:15:16;3.73;;;1.20;;
11711;SDS011;5912;51.034;6.984;2024-02-23T06:17:41;3.43;;;0.87;;
11711;SDS011;5912;51.034;6.984;2024-02-23T06:20:07;2.40;;;1.10;;
11711;SDS011;5912;51.034;6.984;2024-02-23T06:22:33;3.80;;;1.40;;
11711;SDS011;5912;51.034;6.984;2024-02-23T06:24:59;4.83;;;1.03;;
11711;SDS011;5912;51.034;6.984;2024-02-23T06:27:24;5.20;;;1.37;;
11711;SDS011;5912;51.034;6.984;2024-02-23T06:29:51;1.83;;;1.00;;
11711;SDS011;5912;51.034;6.984;2024-02-23T06:35:16;2.60;;;1.20;;
11711;SDS011;5912;51.034;6.984;2024-02-23T06:37:42;3.33;;;1.00;;
11711;SDS011;5912;51.034;6.984;2024-02-23T06:40:07;2.90;;;0.93;;
11711;SDS011;5912;51.034;6.984;2024-02-23T06:42:33;5.33;;;1.37;;
11711;SDS011;5912;51.034;6.984;2024-02-23T06:44:59;6.07;;;1.33;;
11711;SDS011;5912;51.034;6.984;2024-02-23T06:47:24;4.83;;;1.10;;
11711;SDS011;5912;51.034;6.984;2024-02-23T06:49:50;3.17;;;0.90;;
11711;SDS011;5912;51.034;6.984;2024-02-23T06:52:15;2.17;;;0.67;;
11711;SDS011;5912;51.034;6.984;2024-02-23T06:54:41;6.27;;;1.20;;
11711;SDS011;5912;51.034;6.984;2024-02-23T06:57:06;6.27;;;1.43;;
11711;SDS011;5912;51.034;6.984;2024-02-23T06:59:32;4.50;;;1.47;;
11711;SDS011;5912;51.034;6.984;2024-02-23T07:01:58;4.47;;;1.50;;
11711;SDS011;5912;51.034;6.984;2024-02-23T07:04:23;3.67;;;1.10;;
11711;SDS011;5912;51.034;6.984;2024-02-23T07:06:50;3.83;;;1.50;;
11711;SDS011;5912;51.034;6.984;2024-02-23T07:09:16;3.73;;;0.80;;
11711;SDS011;5912;51.034;6.984;2024-02-23T07:11:41;4.47;;;0.80;;
11711;SDS011;5912;51.034;6.984;2024-02-23T07:14:08;2.83;;;0.70;;
11711;SDS011;5912;51.034;6.984;2024-02-23T07:16:38;1.77;;;0.90;;
11711;SDS011;5912;51.034;6.984;2024-02-23T07:19:07;6.07;;;1.50;;
11711;SDS011;5912;51.034;6.984;2024-02-23T07:21:33;3.87;;;1.00;;
11711;SDS011;5912;51.034;6.984;2024-02-23T07:23:59;4.03;;;0.70;;
11711;SDS011;5912;51.034;6.984;2024-02-23T07:26:25;2.83;;;1.03;;
11711;SDS011;5912;51.034;6.984;2024-02-23T07:28:53;2.80;;;1.10;;
11711;SDS011;5912;51.034;6.984;2024-02-23T07:31:19;1.77;;;0.80;;
11711;SDS011;5912;51.034;6.984;2024-02-23T07:33:44;1.83;;;0.70;;
11711;SDS011;5912;51.034;6.984;2024-02-23T07:36:14;2.57;;;1.10;;
11711;SDS011;5912;51.034;6.984;2024-02-23T07:38:40;2.67;;;0.80;;
11711;SDS011;5912;51.034;6.984;2024-02-23T07:41:06;1.60;;;0.90;;
11711;SDS011;5912;51.034;6.984;2024-02-23T07:43:32;5.43;;;1.17;;
11711;SDS011;5912;51.034;6.984;2024-02-23T07:45:58;2.07;;;0.83;;
11711;SDS011;5912;51.034;6.984;2024-02-23T07:48:23;2.77;;;1.00;;
11711;SDS011;5912;51.034;6.984;2024-02-23T07:50:49;1.57;;;0.80;;
11711;SDS011;5912;51.034;6.984;2024-02-23T07:53:15;2.43;;;1.20;;
11711;SDS011;5912;51.034;6.984;2024-02-23T07:55:40;3.13;;;1.33;;
11711;SDS011;5912;51.034;6.984;2024-02-23T07:58:06;3.47;;;1.00;;
11711;SDS011;5912;51.034;6.984;2024-02-23T08:00:32;3.53;;;1.10;;
11711;SDS011;5912;51.034;6.984;2024-02-23T08:02:59;2.73;;;1.10;;
11711;SDS011;5912;51.034;6.984;2024-02-23T08:05:25;2.97;;;1.17;;
11711;SDS011;5912;51.034;6.984;2024-02-23T08:07:51;2.90;;;0.80;;
11711;SDS011;5912;51.034;6.984;2024-02-23T08:10:16;3.23;;;0.83;;
11711;SDS011;5912;51.034;6.984;2024-02-23T08:12:42;3.13;;;0.80;;
11711;SDS011;5912;51.034;6.984;2024-02-23T08:15:08;1.60;;;0.60;;
11711;SDS011;5912;51.034;6.984;2024-02-23T08:17:34;2.20;;;0.90;;
11711;SDS011;5912;51.034;6.984;2024-02-23T08:19:59;3.72;;;0.73;;
11711;SDS011;5912;51.034;6.984;2024-02-23T08:25:47;1.73;;;0.70;;
11711;SDS011;5912;51.034;6.984;2024-02-23T08:28:12;2.80;;;0.98;;
11711;SDS011;5912;51.034;6.984;2024-02-23T08:30:38;4.88;;;1.00;;
11711;SDS011;5912;51.034;6.984;2024-02-23T08:33:03;4.72;;;1.00;;
11711;SDS011;5912;51.034;6.984;2024-02-23T08:35:30;3.00;;;0.70;;
11711;SDS011;5912;51.034;6.984;2024-02-23T08:37:56;2.15;;;0.95;;
11711;SDS011;5912;51.034;6.984;2024-02-23T08:40:21;6.20;;;1.55;;
11711;SDS011;5912;51.034;6.984;2024-02-23T08:42:47;4.78;;;1.05;;
11711;SDS011;5912;51.034;6.984;2024-02-23T08:45:12;3.13;;;1.05;;
11711;SDS011;5912;51.034;6.984;2024-02-23T08:47:38;4.53;;;1.25;;
11711;SDS011;5912;51.034;6.984;2024-02-23T08:50:05;4.78;;;1.30;;
11711;SDS011;5912;51.034;6.984;2024-02-23T08:52:31;3.30;;;0.80;;
11711;SDS011;5912;51.034;6.984;2024-02-23T08:54:56;4.35;;;1.05;;
11711;SDS011;5912;51.034;6.984;2024-02-23T08:57:22;5.57;;;1.00;;
11711;SDS011;5912;51.034;6.984;2024-02-23T08:59:48;2.83;;;0.93;;
11711;SDS011;5912;51.034;6.984;2024-02-23T09:02:14;2.75;;;0.77;;
11711;SDS011;5912;51.034;6.984;2024-02-23T09:04:40;4.55;;;0.90;;
11711;SDS011;5912;51.034;6.984;2024-02-23T09:07:05;4.28;;;0.80;;
11711;SDS011;5912;51.034;6.984;2024-02-23T09:09:31;2.92;;;0.98;;
11711;SDS011;5912;51.034;6.984;2024-02-23T09:11:56;1.77;;;0.60;;
11711;SDS011;5912;51.034;6.984;2024-02-23T09:14:22;1.63;;;0.57;;
11711;SDS011;5912;51.034;6.984;2024-02-23T09:16:47;2.50;;;1.17;;
11711;SDS011;5912;51.034;6.984;2024-02-23T09:19:18;3.45;;;1.00;;
11711;SDS011;5912;51.034;6.984;2024-02-23T09:21:44;2.95;;;0.82;;
11711;SDS011;5912;51.034;6.984;2024-02-23T09:24:10;5.30;;;1.05;;
11711;SDS011;5912;51.034;6.984;2024-02-23T09:26:35;4.07;;;0.70;;
11711;SDS011;5912;51.034;6.984;2024-02-23T09:29:01;3.10;;;1.02;;
11711;SDS011;5912;51.034;6.984;2024-02-23T09:31:27;2.17;;;0.60;;
11711;SDS011;5912;51.034;6.984;2024-02-23T09:33:56;5.63;;;0.90;;
11711;SDS011;5912;51.034;6.984;2024-02-23T09:36:22;3.40;;;0.60;;
11711;SDS011;5912;51.034;6.984;2024-02-23T09:38:47;3.47;;;0.63;;
11711;SDS011;5912;51.034;6.984;2024-02-23T09:41:23;2.20;;;0.70;;
11711;SDS011;5912;51.034;6.984;2024-02-23T09:43:49;1.80;;;0.43;;
11711;SDS011;5912;51.034;6.984;2024-02-23T09:46:16;1.17;;;0.30;;
11711;SDS011;5912;51.034;6.984;2024-02-23T09:48:42;2.50;;;0.68;;
11711;SDS011;5912;51.034;6.984;2024-02-23T09:51:08;1.77;;;0.70;;
11711;SDS011;5912;51.034;6.984;2024-02-23T09:53:37;4.00;;;0.70;;
11711;SDS011;5912;51.034;6.984;2024-02-23T09:56:03;1.75;;;0.75;;
11711;SDS011;5912;51.034;6.984;2024-02-23T09:58:31;1.13;;;0.50;;
11711;SDS011;5912;51.034;6.984;2024-02-23T10:00:58;0.95;;;0.50;;
11711;SDS011;5912;51.034;6.984;2024-02-23T10:03:25;1.73;;;0.45;;
11711;SDS011;5912;51.034;6.984;2024-02-23T10:05:53;2.05;;;0.88;;
11711;SDS011;5912;51.034;6.984;2024-02-23T10:08:19;1.45;;;0.50;;
11711;SDS011;5912;51.034;6.984;2024-02-23T10:10:45;3.08;;;0.50;;
11711;SDS011;5912;51.034;6.984;2024-02-23T10:13:30;2.28;;;0.63;;
11711;SDS011;5912;51.034;6.984;2024-02-23T10:15:56;2.08;;;0.60;;
11711;SDS011;5912;51.034;6.984;2024-02-23T10:18:21;2.65;;;0.50;;
11711;SDS011;5912;51.034;6.984;2024-02-23T10:20:47;2.33;;;0.50;;
11711;SDS011;5912;51.034;6.984;2024-02-23T10:23:15;1.38;;;0.60;;
11711;SDS011;5912;51.034;6.984;2024-02-23T10:25:41;0.77;;;0.40;;
11711;SDS011;5912;51.034;6.984;2024-02-23T10:28:06;2.05;;;0.57;;
11711;SDS011;5912;51.034;6.984;2024-02-23T10:30:32;1.27;;;0.40;;
11711;SDS011;5912;51.034;6.984;2024-02-23T10:32:58;4.18;;;0.68;;
11711;SDS011;5912;51.034;6.984;2024-02-23T10:35:25;4.93;;;0.73;;
11711;SDS011;5912;51.034;6.984;2024-02-23T10:37:52;2.58;;;0.85;;
11711;SDS011;5912;51.034;6.984;2024-02-23T10:40:19;1.98;;;0.52;;
11711;SDS011;5912;51.034;6.984;2024-02-23T10:42:47;3.33;;;0.68;;
11711;SDS011;5912;51.034;6.984;2024-02-23T10:45:19;3.70;;;0.80;;
11711;SDS011;5912;51.034;6.984;2024-02-23T10:47:47;3.90;;;0.70;;
11711;SDS011;5912;51.034;6.984;2024-02-23T10:50:13;1.40;;;0.40;;
11711;SDS011;5912;51.034;6.984;2024-02-23T10:52:43;1.58;;;0.60;;
11711;SDS011;5912;51.034;6.984;2024-02-23T10:55:09;1.65;;;0.35;;
11711;SDS011;5912;51.034;6.984;2024-02-23T10:57:35;2.30;;;0.57;;
11711;SDS011;5912;51.034;6.984;2024-02-23T11:00:01;4.75;;;0.35;;
11711;SDS011;5912;51.034;6.984;2024-02-23T11:02:35;1.20;;;0.50;;
11711;SDS011;5912;51.034;6.984;2024-02-23T11:05:06;1.83;;;0.60;;
11711;SDS011;5912;51.034;6.984;2024-02-23T11:07:37;1.08;;;0.50;;
11711;SDS011;5912;51.034;6.984;2024-02-23T11:10:04;1.33;;;0.47;;
11711;SDS011;5912;51.034;6.984;2024-02-23T11:12:30;0.88;;;0.40;;
11711;SDS011;5912;51.034;6.984;2024-02-23T11:14:56;2.75;;;0.50;;
11711;SDS011;5912;51.034;6.984;2024-02-23T11:17:26;1.45;;;0.65;;
11711;SDS011;5912;51.034;6.984;2024-02-23T11:19:54;2.13;;;0.70;;
11711;SDS011;5912;51.034;6.984;2024-02-23T11:22:30;0.85;;;0.35;;
11711;SDS011;5912;51.034;6.984;2024-02-23T11:25:14;1.00;;;0.60;;
11711;SDS011;5912;51.034;6.984;2024-02-23T11:27:42;2.08;;;0.52;;
11711;SDS011;5912;51.034;6.984;2024-02-23T11:30:09;1.08;;;0.45;;
11711;SDS011;5912;51.034;6.984;2024-02-23T11:35:06;2.42;;;0.60;;
11711;SDS011;5912;51.034;6.984;2024-02-23T11:37:55;3.83;;;0.77;;
11711;SDS011;5912;51.034;6.984;2024-02-23T11:40:30;3.92;;;0.88;;
11711;SDS011;5912;51.034;6.984;2024-02-23T11:42:56;0.95;;;0.47;;
11711;SDS011;5912;51.034;6.984;2024-02-23T11:45:27;2.92;;;0.70;;
11711;SDS011;5912;51.034;6.984;2024-02-23T11:47:54;2.88;;;0.50;;
11711;SDS011;5912;51.034;6.984;2024-02-23T11:50:19;2.25;;;0.65;;
11711;SDS011;5912;51.034;6.984;2024-02-23T11:52:46;3.40;;;0.70;;
11711;SDS011;5912;51.034;6.984;2024-02-23T11:55:12;2.83;;;0.88;;
11711;SDS011;5912;51.034;6.984;2024-02-23T11:57:39;4.13;;;0.75;;
11711;SDS011;5912;51.034;6.984;2024-02-23T12:00:05;2.67;;;0.60;;
11711;SDS011;5912;51.034;6.984;2024-02-23T12:02:35;2.25;;;0.70;;
11711;SDS011;5912;51.034;6.984;2024-02-23T12:05:00;4.35;;;0.70;;
11711;SDS011;5912;51.034;6.984;2024-02-23T12:07:28;2.30;;;0.80;;
11711;SDS011;5912;51.034;6.984;2024-02-23T12:09:55;5.40;;;1.13;;
11711;SDS011;5912;51.034;6.984;2024-02-23T12:12:22;3.38;;;1.10;;
11711;SDS011;5912;51.034;6.984;2024-02-23T12:14:48;3.85;;;0.82;;
11711;SDS011;5912;51.034;6.984;2024-02-23T12:17:13;1.65;;;0.60;;
11711;SDS011;5912;51.034;6.984;2024-02-23T12:19:40;2.15;;;0.52;;
11711;SDS011;5912;51.034;6.984;2024-02-23T12:22:06;3.22;;;0.93;;
11711;SDS011;5912;51.034;6.984;2024-02-23T12:24:31;4.43;;;1.13;;
11711;SDS011;5912;51.034;6.984;2024-02-23T12:26:57;2.92;;;0.80;;
11711;SDS011;5912;51.034;6.984;2024-02-23T12:29:23;1.08;;;0.47;;
11711;SDS011;5912;51.034;6.984;2024-02-23T12:31:49;2.75;;;0.88;;
11711;SDS011;5912;51.034;6.984;2024-02-23T12:34:14;3.63;;;1.08;;
11711;SDS011;5912;51.034;6.984;2024-02-23T12:36:40;3.25;;;0.60;;
11711;SDS011;5912;51.034;6.984;2024-02-23T12:39:05;2.67;;;0.82;;
11711;SDS011;5912;51.034;6.984;2024-02-23T12:41:31;2.25;;;0.93;;
11711;SDS011;5912;51.034;6.984;2024-02-23T12:43:57;2.40;;;0.68;;
11711;SDS011;5912;51.034;6.984;2024-02-23T12:46:23;2.08;;;0.75;;
11711;SDS011;5912;51.034;6.984;2024-02-23T12:48:49;2.72;;;0.65;;
11711;SDS011;5912;51.034;6.984;2024-02-23T12:51:15;3.45;;;0.63;;
11711;SDS011;5912;51.034;6.984;2024-02-23T12:53:41;2.35;;;0.63;;
11711;SDS011;5912;51.034;6.984;2024-02-23T12:56:09;2.72;;;0.80;;
11711;SDS011;5912;51.034;6.984;2024-02-23T12:58:39;2.97;;;0.98;;
11711;SDS011;5912;51.034;6.984;2024-02-23T13:01:06;2.67;;;0.80;;
11711;SDS011;5912;51.034;6.984;2024-02-23T13:03:32;2.90;;;0.70;;
11711;SDS011;5912;51.034;6.984;2024-02-23T13:05:59;1.13;;;0.65;;
11711;SDS011;5912;51.034;6.984;2024-02-23T13:08:25;2.28;;;0.70;;
11711;SDS011;5912;51.034;6.984;2024-02-23T13:10:51;2.95;;;0.95;;
11711;SDS011;5912;51.034;6.984;2024-02-23T13:13:18;2.63;;;0.55;;
11711;SDS011;5912;51.034;6.984;2024-02-23T13:15:44;2.92;;;0.73;;
11711;SDS011;5912;51.034;6.984;2024-02-23T13:18:10;4.03;;;0.90;;
11711;SDS011;5912;51.034;6.984;2024-02-23T13:20:39;3.10;;;0.85;;
11711;SDS011;5912;51.034;6.984;2024-02-23T13:23:07;3.20;;;1.02;;
11711;SDS011;5912;51.034;6.984;2024-02-23T13:25:34;5.43;;;0.77;;
11711;SDS011;5912;51.034;6.984;2024-02-23T13:28:00;1.17;;;0.45;;
11711;SDS011;5912;51.034;6.984;2024-02-23T13:30:25;1.85;;;0.52;;
11711;SDS011;5912;51.034;6.984;2024-02-23T13:32:51;1.85;;;0.80;;
11711;SDS011;5912;51.034;6.984;2024-02-23T13:35:17;0.82;;;0.60;;
11711;SDS011;5912;51.034;6.984;2024-02-23T13:37:44;4.00;;;0.73;;
11711;SDS011;5912;51.034;6.984;2024-02-23T13:40:10;1.67;;;0.73;;
11711;SDS011;5912;51.034;6.984;2024-02-23T13:42:36;1.25;;;0.70;;
11711;SDS011;5912;51.034;6.984;2024-02-23T13:45:04;2.05;;;0.85;;
11711;SDS011;5912;51.034;6.984;2024-02-23T13:47:31;2.28;;;0.82;;
11711;SDS011;5912;51.034;6.984;2024-02-23T13:49:56;2.78;;;0.75;;
11711;SDS011;5912;51.034;6.984;2024-02-23T13:52:22;2.10;;;0.57;;
11711;SDS011;5912;51.034;6.984;2024-02-23T13:54:48;4.22;;;0.95;;
11711;SDS011;5912;51.034;6.984;2024-02-23T13:57:13;1.33;;;0.50;;
11711;SDS011;5912;51.034;6.984;2024-02-23T13:59:39;1.52;;;0.75;;
11711;SDS011;5912;51.034;6.984;2024-02-23T14:02:04;0.90;;;0.35;;
11711;SDS011;5912;51.034;6.984;2024-02-23T14:04:30;1.48;;;0.30;;
11711;SDS011;5912;51.034;6.984;2024-02-23T14:06:55;3.25;;;0.50;;
11711;SDS011;5912;51.034;6.984;2024-02-23T14:09:21;1.25;;;0.50;;
11711;SDS011;5912;51.034;6.984;2024-02-23T14:11:46;1.80;;;0.63;;
11711;SDS011;5912;51.034;6.984;2024-02-23T14:14:12;0.47;;;0.40;;
11711;SDS011;5912;51.034;6.984;2024-02-23T14:16:38;0.73;;;0.40;;
11711;SDS011;5912;51.034;6.984;2024-02-23T14:19:04;1.75;;;0.43;;
11711;SDS011;5912;51.034;6.984;2024-02-23T14:21:30;1.67;;;0.45;;
11711;SDS011;5912;51.034;6.984;2024-02-23T14:23:55;1.02;;;0.35;;
11711;SDS011;5912;51.034;6.984;2024-02-23T14:26:21;1.98;;;0.52;;
11711;SDS011;5912;51.034;6.984;2024-02-23T14:28:47;4.00;;;1.42;;
11711;SDS011;5912;51.034;6.984;2024-02-23T14:31:12;6.88;;;1.92;;
11711;SDS011;5912;51.034;6.984;2024-02-23T14:33:38;5.07;;;2.03;;
11711;SDS011;5912;51.034;6.984;2024-02-23T14:36:04;3.22;;;0.80;;
11711;SDS011;5912;51.034;6.984;2024-02-23T14:38:30;2.67;;;0.60;;
11711;SDS011;5912;51.034;6.984;2024-02-23T14:40:55;3.00;;;0.70;;
11711;SDS011;5912;51.034;6.984;2024-02-23T14:43:20;1.27;;;0.80;;
11711;SDS011;5912;51.034;6.984;2024-02-23T14:45:46;1.05;;;0.30;;
11711;SDS011;5912;51.034;6.984;2024-02-23T14:48:12;1.30;;;0.38;;
11711;SDS011;5912;51.034;6.984;2024-02-23T14:50:37;0.68;;;0.40;;
11711;SDS011;5912;51.034;6.984;2024-02-23T14:53:03;1.48;;;0.50;;
11711;SDS011;5912;51.034;6.984;2024-02-23T14:55:28;1.88;;;0.60;;
11711;SDS011;5912;51.034;6.984;2024-02-23T14:57:54;2.70;;;0.75;;
11711;SDS011;5912;51.034;6.984;2024-02-23T15:00:19;1.40;;;0.70;;
11711;SDS011;5912;51.034;6.984;2024-02-23T15:02:45;1.65;;;1.02;;
11711;SDS011;5912;51.034;6.984;2024-02-23T15:05:11;4.30;;;1.00;;
11711;SDS011;5912;51.034;6.984;2024-02-23T15:07:36;1.20;;;0.60;;
11711;SDS011;5912;51.034;6.984;2024-02-23T15:10:02;3.80;;;0.75;;
11711;SDS011;5912;51.034;6.984;2024-02-23T15:12:33;2.53;;;0.85;;
11711;SDS011;5912;51.034;6.984;2024-02-23T15:15:00;2.20;;;0.70;;
11711;SDS011;5912;51.034;6.984;2024-02-23T15:17:25;1.92;;;0.60;;
11711;SDS011;5912;51.034;6.984;2024-02-23T15:19:51;4.63;;;1.95;;